Villa Toledo, Puerto Rico
Current Conditions -  °F | °C
As of 5:50 PM on Thursday 27 Nov 2014 (Local Time) from TJBQ Reporting Station
Scattered Clouds Scattered Clouds  
Wind Chill: 25°   Ceiling: Unl
Heat Index: 26°   Visibility: 10mi
Dew Point: 21°   Wind: 8mph
Humidity: 78%   Direction: 90°E
Pressure: 29.94"   Gusts: NA
Location:  18.4739°N, 66.7295°W
Report Text: TJBQ 272150Z 09007KT 10SM SCT050 25/21 A2994 RMK RWY08 ATIS I
Loading
Personal Weather Stations






























Interactive Weather Map New forecast layout! Learn more

10-Day Weather Forecast

Advertisements
Track Severe Weather on mobile